createdAt,value
2023-05-15T00:04:53.349Z,14.36
2023-05-15T00:14:59.303Z,14.24
2023-05-15T00:25:05.642Z,14.07
2023-05-15T00:35:11.859Z,13.91
2023-05-15T00:45:17.753Z,13.77
2023-05-15T00:55:24.078Z,13.66
2023-05-15T01:05:30.251Z,13.59
2023-05-15T01:15:37.144Z,13.51
2023-05-15T01:26:27.567Z,13.42
2023-05-15T01:36:40.208Z,13.39
2023-05-15T01:46:50.815Z,13.36
2023-05-15T01:56:58.662Z,13.32
2023-05-15T02:07:06.402Z,13.27
2023-05-15T02:17:12.199Z,13.21
2023-05-15T02:27:26.585Z,13.14
2023-05-15T02:37:36.095Z,13.12
2023-05-15T02:47:43.564Z,13.09
2023-05-15T02:57:49.294Z,13.05
2023-05-15T03:07:55.100Z,13.00
2023-05-15T03:18:00.836Z,12.94
2023-05-15T03:28:06.827Z,12.88
2023-05-15T03:38:12.598Z,12.87
2023-05-15T03:48:18.312Z,12.76
2023-05-15T03:58:23.936Z,12.61
2023-05-15T04:08:29.605Z,12.49
2023-05-15T04:18:35.347Z,12.34
2023-05-15T04:28:49.394Z,12.22
2023-05-15T04:39:02.226Z,12.16
2023-05-15T04:49:07.846Z,12.14
2023-05-15T04:59:13.994Z,12.07
2023-05-15T05:09:21.222Z,11.99
2023-05-15T05:19:28.373Z,12.01
2023-05-15T05:29:34.031Z,11.84
2023-05-15T05:39:39.654Z,11.52
2023-05-15T05:49:48.118Z,11.29
2023-05-15T05:59:54.042Z,11.20
2023-05-15T06:09:59.663Z,11.15
2023-05-15T06:20:07.961Z,11.21
2023-05-15T06:30:15.429Z,11.40
2023-05-15T06:40:22.403Z,11.63
2023-05-15T06:50:28.277Z,11.83
2023-05-15T07:00:34.116Z,11.83
2023-05-15T07:10:39.815Z,11.85
2023-05-15T07:20:45.702Z,12.13
2023-05-15T07:30:52.847Z,12.57
2023-05-15T07:40:58.548Z,12.75
2023-05-15T07:51:04.550Z,12.82
2023-05-15T08:01:10.868Z,12.57
2023-05-15T08:11:16.760Z,12.41
2023-05-15T08:21:22.428Z,12.68
2023-05-15T08:31:28.185Z,12.50
2023-05-15T08:41:40.833Z,12.37
2023-05-15T08:51:48.217Z,12.25
2023-05-15T09:01:55.017Z,12.22
2023-05-15T09:12:02.522Z,12.47
2023-05-15T09:22:23.117Z,12.60
2023-05-15T09:32:29.475Z,12.67
2023-05-15T09:42:37.093Z,12.55
2023-05-15T09:52:43.065Z,12.54
2023-05-15T10:02:49.701Z,12.59
2023-05-15T10:12:58.542Z,12.55
2023-05-15T10:23:06.817Z,12.64
2023-05-15T10:33:14.522Z,12.80
2023-05-15T10:43:23.635Z,12.93
2023-05-15T10:53:29.482Z,12.99
2023-05-15T11:03:49.351Z,13.05
2023-05-15T11:14:24.569Z,13.06
2023-05-15T11:24:48.005Z,13.23
2023-05-15T11:34:53.991Z,14.00
2023-05-15T11:45:00.549Z,15.36
2023-05-15T11:55:09.314Z,16.00
2023-05-15T12:05:15.030Z,15.79
2023-05-15T12:15:20.817Z,15.74
2023-05-15T12:25:26.673Z,15.61
2023-05-15T12:35:34.567Z,15.96
2023-05-15T12:45:43.130Z,15.99
2023-05-15T12:55:49.865Z,16.07
2023-05-15T13:05:55.672Z,16.50
2023-05-15T13:16:01.356Z,15.84
2023-05-15T13:26:07.393Z,15.14
2023-05-15T13:36:14.452Z,14.83
2023-05-15T13:46:20.150Z,14.93
2023-05-15T13:56:25.785Z,16.20
2023-05-15T14:06:35.411Z,16.67
2023-05-15T14:16:41.206Z,17.09
2023-05-15T14:26:47.341Z,17.39
2023-05-15T14:36:53.385Z,17.33
2023-05-15T14:47:13.761Z,17.17
2023-05-15T14:57:20.505Z,17.31
2023-05-15T15:07:30.218Z,17.46
2023-05-15T15:17:35.974Z,17.46
2023-05-15T15:27:41.843Z,17.17
2023-05-15T15:37:47.454Z,16.73
2023-05-15T15:47:53.195Z,16.43
2023-05-15T15:57:59.025Z,16.10
2023-05-15T16:08:04.883Z,15.70
2023-05-15T16:18:11.034Z,15.53
2023-05-15T16:28:17.116Z,15.44
2023-05-15T16:38:23.170Z,15.04
2023-05-15T16:48:29.217Z,14.84
2023-05-15T16:58:34.862Z,14.71
2023-05-15T17:08:42.694Z,15.00
2023-05-15T17:18:48.381Z,15.09
2023-05-15T17:28:54.142Z,15.04
2023-05-15T17:38:59.971Z,14.91
2023-05-15T17:49:05.762Z,14.33
2023-05-15T17:59:11.787Z,13.95
2023-05-15T18:09:17.792Z,13.66
2023-05-15T18:19:23.680Z,13.32
2023-05-15T18:29:30.874Z,13.08
2023-05-15T18:39:39.712Z,13.01
2023-05-15T18:49:45.634Z,12.95
2023-05-15T18:59:51.611Z,12.75
2023-05-15T19:09:59.566Z,12.43
2023-05-15T19:20:06.428Z,12.14
2023-05-15T19:30:13.538Z,12.01
2023-05-15T19:40:19.725Z,11.83
2023-05-15T19:50:25.944Z,11.60
2023-05-15T20:00:32.501Z,11.66
2023-05-15T20:10:38.182Z,11.77
2023-05-15T20:20:44.023Z,11.81
2023-05-15T20:30:49.960Z,11.89
2023-05-15T20:40:56.724Z,11.95
2023-05-15T20:51:02.536Z,11.75
2023-05-15T21:01:08.273Z,11.38
2023-05-15T21:11:14.281Z,11.17
2023-05-15T21:21:20.231Z,11.08
2023-05-15T21:31:26.614Z,10.98
2023-05-15T21:41:32.347Z,11.06
2023-05-15T21:51:37.998Z,11.11
2023-05-15T22:01:44.096Z,11.13
2023-05-15T22:11:49.855Z,11.18
2023-05-15T22:21:55.794Z,11.17
2023-05-15T22:32:01.558Z,11.23
2023-05-15T22:42:08.209Z,11.17
2023-05-15T22:52:14.233Z,11.14
2023-05-15T23:02:20.016Z,11.07
2023-05-15T23:12:26.008Z,11.01
2023-05-15T23:22:31.713Z,11.02
2023-05-15T23:32:37.414Z,10.97
2023-05-15T23:42:43.116Z,10.57
2023-05-15T23:52:48.750Z,10.20
